Time,TemperatureF,DewpointF,PressureIn,WindDirection,WindDirectionDegrees,WindSpeedMPH,WindSpeedGustMPH,Humidity,HourlyPrecipIn,Conditions,Clouds,dailyrainin,SoftwareType,DateUTC
2013-03-28 00:00:00,32.0,24.3,29.86,East,90,8.0,13.0,73,0.00,CLR,CLR,0.00,WeatherDisplay:10.37,2013-03-28 00:00:00,
2013-03-28 00:10:00,31.8,24.5,29.86,East,90,6.0,12.0,74,0.00,CLR,CLR,0.00,WeatherDisplay:10.37,2013-03-28 00:10:00,
2013-03-28 00:20:00,31.5,24.4,29.86,East,90,8.0,12.0,75,0.00,CLR,CLR,0.00,WeatherDisplay:10.37,2013-03-28 00:20:00,
2013-03-28 00:30:00,31.6,24.6,29.86,East,85,8.0,13.0,75,0.00,CLR,CLR,0.00,WeatherDisplay:10.37,2013-03-28 00:30:00,
2013-03-28 00:40:00,31.5,24.4,29.86,NE,47,7.0,12.0,75,0.00,CLR,CLR,0.00,WeatherDisplay:10.37,2013-03-28 00:40:00,
2013-03-28 00:50:00,31.1,24.1,29.86,NE,45,7.0,13.0,75,0.00,CLR,CLR,0.00,WeatherDisplay:10.37,2013-03-28 00:50:00,
2013-03-28 01:00:00,31.1,24.4,29.86,NE,45,8.0,12.0,76,0.00,CLR,CLR,0.00,WeatherDisplay:10.37,2013-03-28 01:00:00,
2013-03-28 01:10:00,30.9,24.2,29.86,NE,45,7.0,12.0,76,0.00,CLR,CLR,0.00,WeatherDisplay:10.37,2013-03-28 01:10:00,
2013-03-28 01:20:00,30.7,24.4,29.87,NE,45,7.0,10.0,77,0.00,CLR,CLR,0.00,WeatherDisplay:10.37,2013-03-28 01:20:00,
2013-03-28 01:30:00,30.7,24.4,29.86,NE,45,7.0,12.0,77,0.00,CLR,CLR,0.00,WeatherDisplay:10.37,2013-03-28 01:30:00,
2013-03-28 01:40:00,30.9,24.6,29.86,NE,45,8.0,14.0,77,0.00,CLR,CLR,0.00,WeatherDisplay:10.37,2013-03-28 01:40:00,
2013-03-28 01:50:00,30.3,24.0,29.86,NE,45,6.0,13.0,77,0.00,CLR,CLR,0.00,WeatherDisplay:10.37,2013-03-28 01:50:00,
2013-03-28 02:00:00,30.2,23.9,29.86,NE,45,6.0,13.0,77,0.00,CLR,CLR,0.00,WeatherDisplay:10.37,2013-03-28 02:00:00,
2013-03-28 02:10:00,30.6,24.5,29.86,NE,45,6.0,11.0,78,0.00,CLR,CLR,0.00,WeatherDisplay:10.37,2013-03-28 02:10:00,
2013-03-28 02:20:00,30.2,23.9,29.85,NE,45,8.0,13.0,77,0.00,CLR,CLR,0.00,WeatherDisplay:10.37,2013-03-28 02:20:00,
2013-03-28 02:30:00,30.6,24.5,29.85,NE,45,7.0,13.0,78,0.00,CLR,CLR,0.00,WeatherDisplay:10.37,2013-03-28 02:30:00,
2013-03-28 02:40:00,30.0,24.3,29.85,NNE,30,7.0,11.0,79,0.00,CLR,CLR,0.00,WeatherDisplay:10.37,2013-03-28 02:40:00,
2013-03-28 02:50:00,30.3,24.6,29.84,North,10,8.0,14.0,79,0.00,CLR,CLR,0.00,WeatherDisplay:10.37,2013-03-28 02:50:00,
2013-03-28 03:00:00,30.4,24.3,29.84,North,0,7.0,14.0,78,0.00,CLR,CLR,0.00,WeatherDisplay:10.37,2013-03-28 03:00:00,
2013-03-28 03:10:00,29.9,24.1,29.83,North,0,7.0,13.0,79,0.00,CLR,CLR,0.00,WeatherDisplay:10.37,2013-03-28 03:10:00,
2013-03-28 03:20:00,29.8,24.1,29.83,North,0,5.0,13.0,79,0.00,CLR,CLR,0.00,WeatherDisplay:10.37,2013-03-28 03:20:00,
2013-03-28 03:30:00,29.8,24.1,29.83,North,0,6.0,13.0,79,0.00,CLR,CLR,0.00,WeatherDisplay:10.37,2013-03-28 03:30:00,
2013-03-28 03:40:00,29.8,24.1,29.82,North,0,3.0,13.0,79,0.00,CLR,CLR,0.00,WeatherDisplay:10.37,2013-03-28 03:40:00,
2013-03-28 03:50:00,30.0,24.6,29.82,North,6,8.0,13.0,80,0.00,CLR,CLR,0.00,WeatherDisplay:10.37,2013-03-28 03:50:00,
2013-03-28 04:00:00,30.3,24.5,29.82,NNE,24,5.0,12.0,79,0.00,CLR,CLR,0.00,WeatherDisplay:10.37,2013-03-28 04:00:00,
2013-03-28 04:10:00,29.8,24.4,29.82,NE,42,3.0,13.0,80,0.00,CLR,CLR,0.00,WeatherDisplay:10.37,2013-03-28 04:10:00,
2013-03-28 04:20:00,29.3,23.6,29.82,NE,45,7.0,11.0,79,0.00,CLR,CLR,0.00,WeatherDisplay:10.37,2013-03-28 04:20:00,
2013-03-28 04:30:00,29.9,24.5,29.82,NE,45,5.0,13.0,80,0.00,CLR,CLR,0.00,WeatherDisplay:10.37,2013-03-28 04:30:00,
2013-03-28 04:40:00,29.8,24.7,29.82,NE,45,7.0,13.0,81,0.00,CLR,CLR,0.00,WeatherDisplay:10.37,2013-03-28 04:40:00,
2013-03-28 04:50:00,30.0,24.9,29.82,NE,42,6.0,13.0,81,0.00,CLR,CLR,0.00,WeatherDisplay:10.37,2013-03-28 04:50:00,
2013-03-28 05:00:00,29.7,24.2,29.82,NE,44,10.0,13.0,80,0.00,CLR,CLR,0.00,WeatherDisplay:10.37,2013-03-28 05:00:00,
2013-03-28 05:10:00,29.3,23.9,29.82,NE,45,6.0,12.0,80,0.00,CLR,CLR,0.00,WeatherDisplay:10.37,2013-03-28 05:10:00,
2013-03-28 05:20:00,29.8,24.7,29.82,NE,45,5.0,12.0,81,0.00,CLR,CLR,0.00,WeatherDisplay:10.37,2013-03-28 05:20:00,
2013-03-28 05:30:00,29.9,24.8,29.82,NE,45,7.0,13.0,81,0.00,CLR,CLR,0.00,WeatherDisplay:10.37,2013-03-28 05:30:00,
2013-03-28 05:40:00,30.2,25.1,29.83,ENE,70,6.0,13.0,81,0.00,CLR,CLR,0.00,WeatherDisplay:10.37,2013-03-28 05:40:00,
2013-03-28 05:50:00,29.8,24.7,29.82,ENE,77,6.0,12.0,81,0.00,CLR,CLR,0.00,WeatherDisplay:10.37,2013-03-28 05:50:00,
2013-03-28 06:00:00,30.0,24.9,29.83,East,80,5.0,11.0,81,0.00,CLR,CLR,0.00,WeatherDisplay:10.37,2013-03-28 06:00:00,
2013-03-28 06:10:00,29.6,24.5,29.82,NE,55,7.0,11.0,81,0.00,CLR,CLR,0.00,WeatherDisplay:10.37,2013-03-28 06:10:00,
2013-03-28 06:20:00,29.3,24.5,29.83,NE,45,6.0,10.0,82,0.00,CLR,CLR,0.00,WeatherDisplay:10.37,2013-03-28 06:20:00,
2013-03-28 06:30:00,29.1,24.3,29.83,NE,45,5.0,10.0,82,0.00,CLR,CLR,0.00,WeatherDisplay:10.37,2013-03-28 06:30:00,
2013-03-28 06:40:00,29.1,24.3,29.83,NE,45,6.0,8.0,82,0.00,CLR,CLR,0.00,WeatherDisplay:10.37,2013-03-28 06:40:00,
2013-03-28 06:50:00,29.7,25.2,29.83,ENE,75,6.0,10.0,83,0.00,CLR,CLR,0.00,WeatherDisplay:10.37,2013-03-28 06:50:00,
2013-03-28 07:00:00,30.4,25.5,29.83,East,81,6.0,9.0,82,0.00,CLR,CLR,0.00,WeatherDisplay:10.37,2013-03-28 07:00:00,
2013-03-28 07:10:00,31.3,26.5,29.82,ENE,65,8.0,11.0,82,0.00,CLR,CLR,0.00,WeatherDisplay:10.37,2013-03-28 07:10:00,
2013-03-28 07:20:00,31.8,26.7,29.82,NE,51,6.0,11.0,81,0.00,CLR,CLR,0.00,WeatherDisplay:10.37,2013-03-28 07:20:00,
2013-03-28 07:30:00,32.7,27.2,29.82,NE,45,6.0,11.0,80,0.00,CLR,CLR,0.00,WeatherDisplay:10.37,2013-03-28 07:30:00,
2013-03-28 07:40:00,31.6,25.6,29.83,NE,45,3.0,12.0,78,0.00,CLR,CLR,0.00,WeatherDisplay:10.37,2013-03-28 07:40:00,
2013-03-28 07:50:00,32.2,25.8,29.82,NE,45,7.0,11.0,77,0.00,CLR,CLR,0.00,WeatherDisplay:10.37,2013-03-28 07:50:00,
2013-03-28 08:00:00,33.3,26.8,29.82,NE,45,5.0,11.0,77,0.00,CLR,CLR,0.00,WeatherDisplay:10.37,2013-03-28 08:00:00,
2013-03-28 08:10:00,33.9,26.8,29.82,NE,45,5.0,13.0,75,0.00,CLR,CLR,0.00,WeatherDisplay:10.37,2013-03-28 08:10:00,
2013-03-28 08:20:00,34.0,26.2,29.82,NE,45,6.0,10.0,73,0.00,CLR,CLR,0.00,WeatherDisplay:10.37,2013-03-28 08:20:00,
2013-03-28 08:30:00,34.3,26.2,29.82,NE,45,7.0,14.0,72,0.00,CLR,CLR,0.00,WeatherDisplay:10.37,2013-03-28 08:30:00,
2013-03-28 08:40:00,34.9,26.4,29.82,NE,45,9.0,14.0,71,0.00,CLR,CLR,0.00,WeatherDisplay:10.37,2013-03-28 08:40:00,
2013-03-28 08:50:00,34.3,24.9,29.82,NE,45,9.0,15.0,68,0.00,CLR,CLR,0.00,WeatherDisplay:10.37,2013-03-28 08:50:00,
2013-03-28 09:00:00,35.4,25.5,29.82,NE,45,8.0,17.0,67,0.00,CLR,CLR,0.00,WeatherDisplay:10.37,2013-03-28 09:00:00,
2013-03-28 09:10:00,34.2,24.4,29.82,NE,53,9.0,17.0,67,0.00,CLR,CLR,0.00,WeatherDisplay:10.37,2013-03-28 09:10:00,
2013-03-28 09:20:00,35.2,25.7,29.82,East,87,9.0,17.0,68,0.00,CLR,CLR,0.00,WeatherDisplay:10.37,2013-03-28 09:20:00,
2013-03-28 09:30:00,35.4,24.8,29.82,East,87,10.0,16.0,65,0.00,CLR,CLR,0.00,WeatherDisplay:10.37,2013-03-28 09:30:00,
2013-03-28 09:40:00,35.2,24.6,29.82,East,90,12.0,18.0,65,0.00,CLR,CLR,0.00,WeatherDisplay:10.37,2013-03-28 09:40:00,
2013-03-28 09:50:00,34.6,24.0,29.82,East,90,12.0,17.0,65,0.00,CLR,CLR,0.00,WeatherDisplay:10.37,2013-03-28 09:50:00,
2013-03-28 10:00:00,35.5,25.2,29.82,East,90,8.0,16.0,66,0.00,CLR,CLR,0.00,WeatherDisplay:10.37,2013-03-28 10:00:00,
2013-03-28 10:10:00,36.5,24.7,29.81,East,90,12.0,17.0,62,0.00,CLR,CLR,0.00,WeatherDisplay:10.37,2013-03-28 10:10:00,
2013-03-28 10:20:00,37.6,27.6,29.81,East,90,13.0,20.0,67,0.00,CLR,CLR,0.00,WeatherDisplay:10.37,2013-03-28 10:20:00,
2013-03-28 10:30:00,37.0,24.0,29.81,East,90,10.0,20.0,59,0.00,CLR,CLR,0.00,WeatherDisplay:10.37,2013-03-28 10:30:00,
2013-03-28 10:40:00,36.9,23.1,29.81,East,90,13.0,20.0,57,0.00,CLR,CLR,0.00,WeatherDisplay:10.37,2013-03-28 10:40:00,
2013-03-28 10:50:00,36.2,22.8,29.81,SE,127,10.0,18.0,58,0.00,CLR,CLR,0.00,WeatherDisplay:10.37,2013-03-28 10:50:00,
2013-03-28 11:00:00,36.7,23.3,29.80,SE,135,12.0,22.0,58,0.00,CLR,CLR,0.00,WeatherDisplay:10.37,2013-03-28 11:00:00,
2013-03-28 11:10:00,37.0,22.8,29.80,SE,135,13.0,21.0,56,0.00,CLR,CLR,0.00,WeatherDisplay:10.37,2013-03-28 11:10:00,
2013-03-28 11:20:00,37.2,22.5,29.79,SE,135,16.0,22.0,55,0.00,CLR,CLR,0.00,WeatherDisplay:10.37,2013-03-28 11:20:00,
2013-03-28 11:30:00,37.9,24.9,29.79,SE,135,15.0,23.0,59,0.00,CLR,CLR,0.00,WeatherDisplay:10.37,2013-03-28 11:30:00,
2013-03-28 11:40:00,38.1,25.4,29.79,SE,135,16.0,23.0,60,0.00,CLR,CLR,0.00,WeatherDisplay:10.37,2013-03-28 11:40:00,
2013-03-28 11:50:00,38.1,25.4,29.78,SE,135,15.0,24.0,60,0.00,CLR,CLR,0.00,WeatherDisplay:10.37,2013-03-28 11:50:00,
2013-03-28 12:00:00,38.7,25.6,29.78,SE,135,17.0,32.0,59,0.00,CLR,CLR,0.00,WeatherDisplay:10.37,2013-03-28 12:00:00,
2013-03-28 12:10:00,38.4,24.5,29.78,SE,135,18.0,26.0,57,0.00,CLR,CLR,0.00,WeatherDisplay:10.37,2013-03-28 12:10:00,
2013-03-28 12:20:00,38.2,24.7,29.77,SE,135,13.0,29.0,58,0.00,CLR,CLR,0.00,WeatherDisplay:10.37,2013-03-28 12:20:00,
2013-03-28 12:30:00,37.5,24.0,29.77,SE,135,14.0,23.0,58,0.00,CLR,CLR,0.00,WeatherDisplay:10.37,2013-03-28 12:30:00,
2013-03-28 12:40:00,37.9,24.0,29.77,SE,135,16.0,23.0,57,0.00,CLR,CLR,0.00,WeatherDisplay:10.37,2013-03-28 12:40:00,
2013-03-28 12:50:00,38.4,24.4,29.77,SE,135,18.0,27.0,57,0.00,CLR,CLR,0.00,WeatherDisplay:10.37,2013-03-28 12:50:00,
2013-03-28 13:00:00,38.0,24.1,29.77,SE,135,21.0,28.0,57,0.00,CLR,CLR,0.00,WeatherDisplay:10.37,2013-03-28 13:00:00,
2013-03-28 13:10:00,38.1,23.4,29.77,SE,135,18.0,28.0,55,0.00,CLR,CLR,0.00,WeatherDisplay:10.37,2013-03-28 13:10:00,
2013-03-28 13:20:00,38.7,23.9,29.76,SE,135,17.0,23.0,55,0.00,CLR,CLR,0.00,WeatherDisplay:10.37,2013-03-28 13:20:00,
2013-03-28 13:30:00,38.9,23.2,29.76,SE,135,16.0,25.0,53,0.00,CLR,CLR,0.00,WeatherDisplay:10.37,2013-03-28 13:30:00,
2013-03-28 13:40:00,38.7,22.6,29.76,SE,135,16.0,28.0,52,0.00,CLR,CLR,0.00,WeatherDisplay:10.37,2013-03-28 13:40:00,
2013-03-28 13:49:00,38.8,23.2,29.76,SE,135,18.0,28.0,53,0.00,CLR,CLR,0.00,WeatherDisplay:10.37,2013-03-28 13:49:00,
2013-03-28 14:00:00,39.0,24.2,29.76,SE,135,18.0,24.0,55,0.00,CLR,CLR,0.00,WeatherDisplay:10.37,2013-03-28 14:00:00,
2013-03-28 14:10:00,39.3,23.1,29.76,SE,135,15.0,29.0,52,0.00,CLR,CLR,0.00,WeatherDisplay:10.37,2013-03-28 14:10:00,
2013-03-28 14:19:00,39.2,23.9,29.75,SE,135,17.0,24.0,54,0.00,CLR,CLR,0.00,WeatherDisplay:10.37,2013-03-28 14:19:00,
2013-03-28 14:30:00,39.0,23.8,29.76,SE,135,16.0,23.0,54,0.00,CLR,CLR,0.00,WeatherDisplay:10.37,2013-03-28 14:30:00,
2013-03-28 14:40:00,39.4,22.7,29.75,SE,135,13.0,21.0,51,0.00,CLR,CLR,0.00,WeatherDisplay:10.37,2013-03-28 14:40:00,
2013-03-28 14:49:00,39.5,23.3,29.75,SE,135,10.0,20.0,52,0.00,CLR,CLR,0.00,WeatherDisplay:10.37,2013-03-28 14:49:00,
2013-03-28 15:00:00,39.7,23.1,29.75,SE,135,15.0,22.0,51,0.00,CLR,CLR,0.00,WeatherDisplay:10.37,2013-03-28 15:00:00,
2013-03-28 15:10:00,39.9,24.2,29.75,SE,135,17.0,23.0,53,0.00,CLR,CLR,0.00,WeatherDisplay:10.37,2013-03-28 15:10:00,
2013-03-28 15:19:00,39.9,21.3,29.75,SE,135,16.0,24.0,47,0.00,CLR,CLR,0.00,WeatherDisplay:10.37,2013-03-28 15:19:00,
2013-03-28 15:30:00,39.6,21.5,29.75,SE,135,15.0,23.0,48,0.00,CLR,CLR,0.00,WeatherDisplay:10.37,2013-03-28 15:30:00,
2013-03-28 15:40:00,39.4,21.8,29.75,SE,135,13.0,21.0,49,0.00,CLR,CLR,0.00,WeatherDisplay:10.37,2013-03-28 15:40:00,
2013-03-28 15:49:00,40.3,22.6,29.75,SE,137,13.0,17.0,49,0.00,CLR,CLR,0.00,WeatherDisplay:10.37,2013-03-28 15:49:00,
2013-03-28 15:59:00,42.0,23.2,29.74,SE,135,17.0,23.0,47,0.00,CLR,CLR,0.00,WeatherDisplay:10.37,2013-03-28 15:59:00,
2013-03-28 16:10:00,42.7,22.8,29.74,SE,141,14.0,31.0,45,0.00,CLR,CLR,0.00,WeatherDisplay:10.37,2013-03-28 16:10:00,
2013-03-28 16:19:00,42.1,22.2,29.74,SE,130,16.0,21.0,45,0.00,CLR,CLR,0.00,WeatherDisplay:10.37,2013-03-28 16:19:00,
2013-03-28 16:30:00,40.5,22.4,29.74,SE,135,14.0,23.0,48,0.00,CLR,CLR,0.00,WeatherDisplay:10.37,2013-03-28 16:30:00,
2013-03-28 16:40:00,40.2,22.6,29.73,SE,135,9.0,23.0,49,0.00,CLR,CLR,0.00,WeatherDisplay:10.37,2013-03-28 16:40:00,
2013-03-28 16:50:00,41.2,22.5,29.73,SE,135,13.0,16.0,47,0.00,CLR,CLR,0.00,WeatherDisplay:10.37,2013-03-28 16:50:00,
2013-03-28 17:00:00,42.1,22.2,29.73,SE,133,15.0,23.0,45,0.00,CLR,CLR,0.00,WeatherDisplay:10.37,2013-03-28 17:00:00,
2013-03-28 17:10:00,41.7,21.9,29.73,SE,135,14.0,24.0,45,0.00,CLR,CLR,0.00,WeatherDisplay:10.37,2013-03-28 17:10:00,
2013-03-28 17:20:00,41.7,21.9,29.73,SE,135,15.0,23.0,45,0.00,CLR,CLR,0.00,WeatherDisplay:10.37,2013-03-28 17:20:00,
2013-03-28 17:30:00,41.4,21.6,29.73,SE,133,18.0,26.0,45,0.00,CLR,CLR,0.00,WeatherDisplay:10.37,2013-03-28 17:30:00,
2013-03-28 17:40:00,40.8,21.1,29.73,SE,135,17.0,26.0,45,0.00,CLR,CLR,0.00,WeatherDisplay:10.37,2013-03-28 17:40:00,
2013-03-28 17:50:00,40.6,21.4,29.73,SE,135,15.0,21.0,46,0.00,CLR,CLR,0.00,WeatherDisplay:10.37,2013-03-28 17:50:00,
2013-03-28 18:00:00,40.3,21.6,29.73,SE,135,13.0,20.0,47,0.00,CLR,CLR,0.00,WeatherDisplay:10.37,2013-03-28 18:00:00,
2013-03-28 18:10:00,39.9,22.3,29.73,SE,135,10.0,20.0,49,0.00,CLR,CLR,0.00,WeatherDisplay:10.37,2013-03-28 18:10:00,
2013-03-28 18:20:00,39.2,21.6,29.73,SE,135,17.0,23.0,49,0.00,CLR,CLR,0.00,WeatherDisplay:10.37,2013-03-28 18:20:00,
2013-03-28 18:30:00,38.7,21.6,29.73,SE,135,15.0,23.0,50,0.00,CLR,CLR,0.00,WeatherDisplay:10.37,2013-03-28 18:30:00,
2013-03-28 18:40:00,38.4,21.8,29.74,SE,135,16.0,23.0,51,0.00,CLR,CLR,0.00,WeatherDisplay:10.37,2013-03-28 18:40:00,
2013-03-28 18:50:00,38.2,22.1,29.73,SE,135,17.0,24.0,52,0.00,CLR,CLR,0.00,WeatherDisplay:10.37,2013-03-28 18:50:00,
2013-03-28 19:00:00,37.7,22.1,29.73,SE,135,13.0,23.0,53,0.00,CLR,CLR,0.00,WeatherDisplay:10.37,2013-03-28 19:00:00,
2013-03-28 19:10:00,37.0,20.6,29.73,SE,135,12.0,20.0,51,0.00,CLR,CLR,0.00,WeatherDisplay:10.37,2013-03-28 19:10:00,
2013-03-28 19:20:00,36.9,20.4,29.73,SE,135,12.0,18.0,51,0.00,CLR,CLR,0.00,WeatherDisplay:10.37,2013-03-28 19:20:00,
2013-03-28 19:30:00,36.3,20.4,29.73,SE,135,13.0,18.0,52,0.00,CLR,CLR,0.00,WeatherDisplay:10.37,2013-03-28 19:30:00,
2013-03-28 19:40:00,36.3,20.8,29.73,SE,135,13.0,18.0,53,0.00,CLR,CLR,0.00,WeatherDisplay:10.37,2013-03-28 19:40:00,
2013-03-28 19:50:00,36.3,20.4,29.73,SE,135,13.0,22.0,52,0.00,CLR,CLR,0.00,WeatherDisplay:10.37,2013-03-28 19:50:00,
2013-03-28 20:00:00,36.2,20.3,29.73,SE,135,16.0,25.0,52,0.00,CLR,CLR,0.00,WeatherDisplay:10.37,2013-03-28 20:00:00,
2013-03-28 20:10:00,36.0,20.0,29.73,SE,135,16.0,22.0,52,0.00,CLR,CLR,0.00,WeatherDisplay:10.37,2013-03-28 20:10:00,
2013-03-28 20:20:00,36.0,20.0,29.72,SE,135,15.0,22.0,52,0.00,CLR,CLR,0.00,WeatherDisplay:10.37,2013-03-28 20:20:00,
2013-03-28 20:30:00,35.8,19.9,29.72,SE,135,13.0,23.0,52,0.00,CLR,CLR,0.00,WeatherDisplay:10.37,2013-03-28 20:30:00,
2013-03-28 20:40:00,35.6,19.7,29.72,SE,135,14.0,23.0,52,0.00,CLR,CLR,0.00,WeatherDisplay:10.37,2013-03-28 20:40:00,
2013-03-28 20:50:00,35.2,19.8,29.71,SE,135,12.0,20.0,53,0.00,CLR,CLR,0.00,WeatherDisplay:10.37,2013-03-28 20:50:00,
2013-03-28 21:00:00,34.9,20.3,29.71,SE,135,10.0,15.0,55,0.00,CLR,CLR,0.00,WeatherDisplay:10.37,2013-03-28 21:00:00,
2013-03-28 21:10:00,34.7,20.6,29.71,SE,135,8.0,15.0,56,0.00,CLR,CLR,0.00,WeatherDisplay:10.37,2013-03-28 21:10:00,
2013-03-28 21:20:00,34.5,21.2,29.71,SE,135,13.0,15.0,58,0.00,CLR,CLR,0.00,WeatherDisplay:10.37,2013-03-28 21:20:00,
2013-03-28 21:30:00,34.7,21.8,29.71,SE,135,9.0,17.0,59,0.00,CLR,CLR,0.00,WeatherDisplay:10.37,2013-03-28 21:30:00,
2013-03-28 21:40:00,34.4,21.9,29.70,SE,135,12.0,16.0,60,0.00,CLR,CLR,0.00,WeatherDisplay:10.37,2013-03-28 21:40:00,
2013-03-28 21:50:00,34.2,21.7,29.70,SE,135,9.0,15.0,60,0.00,CLR,CLR,0.00,WeatherDisplay:10.37,2013-03-28 21:50:00,
2013-03-28 22:00:00,34.2,21.7,29.70,SE,135,12.0,18.0,60,0.00,CLR,CLR,0.00,WeatherDisplay:10.37,2013-03-28 22:00:00,
2013-03-28 22:10:00,34.0,21.5,29.70,SE,135,13.0,18.0,60,0.00,CLR,CLR,0.00,WeatherDisplay:10.37,2013-03-28 22:10:00,
2013-03-28 22:20:00,33.8,21.8,29.69,SE,135,12.0,20.0,61,0.00,CLR,CLR,0.00,WeatherDisplay:10.37,2013-03-28 22:20:00,
2013-03-28 22:30:00,33.7,22.0,29.68,SE,135,12.0,20.0,62,0.00,CLR,CLR,0.00,WeatherDisplay:10.37,2013-03-28 22:30:00,
2013-03-28 22:40:00,33.6,22.4,29.68,SE,132,12.0,20.0,63,0.00,CLR,CLR,0.00,WeatherDisplay:10.37,2013-03-28 22:40:00,
2013-03-28 22:50:00,33.5,22.2,29.68,ESE,120,13.0,21.0,63,0.00,CLR,CLR,0.00,WeatherDisplay:10.37,2013-03-28 22:50:00,
2013-03-28 23:00:00,33.6,22.4,29.67,ESE,120,14.0,21.0,63,0.00,CLR,CLR,0.00,WeatherDisplay:10.37,2013-03-28 23:00:00,
2013-03-28 23:10:00,33.6,22.4,29.67,ESE,116,13.0,23.0,63,0.00,CLR,CLR,0.00,WeatherDisplay:10.37,2013-03-28 23:10:00,
2013-03-28 23:20:00,33.6,22.4,29.67,SE,135,12.0,22.0,63,0.00,CLR,CLR,0.00,WeatherDisplay:10.37,2013-03-28 23:20:00,
2013-03-28 23:30:00,33.6,22.4,29.67,ESE,117,14.0,24.0,63,0.00,CLR,CLR,0.00,WeatherDisplay:10.37,2013-03-28 23:30:00,
2013-03-28 23:40:00,33.4,22.2,29.67,ESE,115,14.0,22.0,63,0.00,CLR,CLR,0.00,WeatherDisplay:10.37,2013-03-28 23:40:00,
2013-03-28 23:50:00,33.3,22.4,29.67,ESE,118,14.0,21.0,64,0.00,CLR,CLR,0.00,WeatherDisplay:10.37,2013-03-28 23:50:00,